Terminal Aerodrome Forecast
Issued by NWS Paducah, KY

Home | Current Version | Previous Version | Graphics & Text | Print | Product List | Glossary On
Versions: 1 2 3 4 5 6 7 8 9 10 11 12 13 14 15 16 17 18 19 20 21
000
FTUS43 KPAH 252200 AAA
TAFPAH
TAF AMD
KPAH 252245Z 2523/2618 27009KT 4SM -RA SCT015 OVC040
     FM260100 33014G22KT P6SM SCT015 OVC025
      TEMPO 2602/2604 BKN015=

USA.gov is the U.S. government's official web portal to all federal, state and local government web resources and services.